Time;durP1;ratioP1;P1;durP2;ratioP2;P2;SDS_P1;SDS_P2;PMS_P1;PMS_P2;Temp;Humidity;BMP_temperature;BMP_pressure;BME280_temperature;BME280_humidity;BME280_pressure;Samples;Min_cycle;Max_cycle;Signal;HPM_P1;HPM_P2
2022/09/29 00:01:42;;;;;;;11.93;8.40;;;;;;;4.16;100.00;99114.44;4947460;28;20043;-79
2022/09/29 00:04:08;;;;;;;11.32;8.07;;;;;;;4.14;100.00;99113.63;4947967;29;20418;-79
2022/09/29 00:06:33;;;;;;;9.65;7.57;;;;;;;4.14;100.00;99111.88;4945626;29;20729;-79
2022/09/29 00:08:59;;;;;;;12.18;8.63;;;;;;;4.12;100.00;99110.13;4948965;29;20158;-79
2022/09/29 00:11:24;;;;;;;11.18;7.50;;;;;;;4.03;100.00;99107.53;4945398;28;20047;-79
2022/09/29 00:13:49;;;;;;;11.82;9.02;;;;;;;4.02;100.00;99111.88;4948304;29;20071;-79
2022/09/29 00:16:15;;;;;;;13.82;8.25;;;;;;;3.97;100.00;99111.03;4946528;29;20040;-79
2022/09/29 00:18:41;;;;;;;10.90;8.00;;;;;;;3.97;100.00;99115.38;4947204;28;20059;-79
2022/09/29 00:21:13;;;;;;;11.40;7.95;;;;;;;3.94;100.00;99119.72;4947826;28;20085;-79
2022/09/29 00:23:38;;;;;;;9.13;6.97;;;;;;;3.86;100.00;99113.66;4946974;28;20036;-79
2022/09/29 00:26:08;;;;;;;222.82;17.48;;;;;;;3.86;100.00;99112.81;4944597;29;20122;-79
2022/09/29 00:28:35;;;;;;;10.02;8.10;;;;;;;3.79;100.00;99119.75;4946982;29;20043;-79
2022/09/29 00:31:02;;;;;;;11.48;7.75;;;;;;;3.77;100.00;99118.03;4944798;29;20451;-79
2022/09/29 00:33:29;;;;;;;8.77;7.70;;;;;;;3.79;100.00;99111.06;4948118;29;20035;-78
2022/09/29 00:35:58;;;;;;;10.15;7.03;;;;;;;3.82;100.00;99118.88;4944447;29;20047;-78
2022/09/29 00:38:24;;;;;;;10.13;8.25;;;;;;;3.89;100.00;99118.88;4945449;28;20474;-79
2022/09/29 00:40:50;;;;;;;8.82;7.40;;;;;;;3.97;100.00;99118.00;4946262;29;20086;-79
2022/09/29 00:43:22;;;;;;;12.45;7.68;;;;;;;4.04;100.00;99115.38;4947821;28;20038;-79
2022/09/29 00:45:48;;;;;;;10.68;6.57;;;;;;;4.09;100.00;99121.44;4944466;29;20038;-79
2022/09/29 00:48:18;;;;;;;12.20;6.95;;;;;;;4.08;100.00;99122.31;4947351;28;20097;-79
2022/09/29 00:50:49;;;;;;;8.35;6.63;;;;;;;4.09;100.00;99124.06;4946272;29;20040;-79
2022/09/29 00:53:16;;;;;;;8.48;6.18;;;;;;;4.15;100.00;99131.00;4954362;28;20031;-79
2022/09/29 00:55:46;;;;;;;8.43;6.45;;;;;;;4.20;100.00;99118.81;4947947;28;20129;-78
2022/09/29 00:58:39;;;;;;;6.35;5.35;;;;;;;4.23;100.00;99121.41;4947396;29;20561;-79
2022/09/29 01:01:05;;;;;;;6.75;5.50;;;;;;;4.25;100.00;99129.25;4946540;29;20043;-79
2022/09/29 01:03:39;;;;;;;8.25;6.28;;;;;;;4.35;100.00;99121.38;4947490;28;20085;-79
2022/09/29 01:06:12;;;;;;;6.78;6.00;;;;;;;4.42;100.00;99134.41;4945628;29;20079;-79
2022/09/29 01:08:51;;;;;;;7.05;6.35;;;;;;;4.49;100.00;99120.44;4946082;28;20038;-79
2022/09/29 01:11:20;;;;;;;5.95;5.35;;;;;;;4.63;100.00;99126.47;4950380;29;20047;-79
2022/09/29 01:13:46;;;;;;;7.47;5.53;;;;;;;4.78;100.00;99130.75;4944418;29;20679;-79
2022/09/29 01:16:11;;;;;;;7.55;6.03;;;;;;;4.95;100.00;99134.16;4947346;29;20030;-79
2022/09/29 01:18:37;;;;;;;6.97;5.57;;;;;;;5.08;100.00;99137.53;4944393;28;20514;-79
2022/09/29 01:21:40;;;;;;;6.10;5.40;;;;;;;5.07;100.00;99127.97;4948227;28;20095;-79
2022/09/29 01:24:25;;;;;;;;;;;;;;;5.01;100.00;99135.88;4953313;28;20101;-79
2022/09/29 01:27:14;;;;;;;6.90;5.50;;;;;;;5.05;100.00;99134.94;4946209;29;20382;-79
2022/09/29 01:29:55;;;;;;;9.77;7.13;;;;;;;5.17;100.00;99137.50;4945712;28;20134;-79
2022/09/29 01:32:51;;;;;;;8.30;6.85;;;;;;;5.32;100.00;99136.53;4943371;29;20055;-79
2022/09/29 01:35:26;;;;;;;8.88;6.05;;;;;;;5.51;100.00;99133.78;4945856;29;20095;-79
2022/09/29 01:37:57;;;;;;;7.60;6.18;;;;;;;5.63;100.00;99131.94;4944829;28;20047;-79
2022/09/29 01:40:35;;;;;;;7.40;5.65;;;;;;;5.70;100.00;99133.59;4944275;29;20036;-79
2022/09/29 01:43:13;;;;;;;8.52;6.35;;;;;;;5.78;100.00;99136.13;4943122;29;20043;-79
2022/09/29 01:45:45;;;;;;;9.98;6.80;;;;;;;5.90;100.00;99135.16;4945557;29;20528;-78
2022/09/29 01:48:19;;;;;;;10.27;6.90;;;;;;;6.01;100.00;99130.72;4944870;28;20050;-79
2022/09/29 01:50:49;;;;;;;8.68;7.07;;;;;;;6.06;100.00;99131.53;4949366;28;20046;-79
2022/09/29 01:53:27;;;;;;;8.02;7.03;;;;;;;6.12;100.00;99135.84;4949823;28;20036;-79
2022/09/29 01:55:57;;;;;;;8.93;6.97;;;;;;;6.21;100.00;99134.88;4944485;29;20035;-79
2022/09/29 01:58:29;;;;;;;12.55;6.97;;;;;;;6.23;100.00;99127.88;4946094;28;20644;-79
2022/09/29 02:00:59;;;;;;;11.23;6.60;;;;;;;6.29;100.00;99133.94;4947115;29;20054;-79
2022/09/29 02:03:39;;;;;;;8.45;7.07;;;;;;;6.21;100.00;99129.63;4944635;29;20038;-79
2022/09/29 02:06:14;;;;;;;9.05;6.75;;;;;;;6.12;100.00;99131.47;4944508;28;20082;-79
2022/09/29 02:08:46;;;;;;;11.95;7.55;;;;;;;6.21;100.00;99129.63;4945430;29;20028;-80
2022/09/29 02:11:12;;;;;;;9.20;7.28;;;;;;;6.24;100.00;99135.72;4943607;29;20067;-79
2022/09/29 02:13:53;;;;;;;9.48;7.18;;;;;;;6.22;100.00;99134.00;4950537;29;20062;-80
2022/09/29 02:16:25;;;;;;;10.85;8.25;;;;;;;6.22;100.00;99139.25;4944380;29;20035;-79
2022/09/29 02:19:01;;;;;;;8.52;7.28;;;;;;;6.25;100.00;99136.59;4948427;28;20407;-80
2022/09/29 02:21:26;;;;;;;8.68;7.30;;;;;;;6.31;100.00;99139.13;4958306;28;20031;-79
2022/09/29 02:23:53;;;;;;;10.52;6.82;;;;;;;6.36;100.00;99139.94;4950272;29;20035;-79
2022/09/29 02:26:19;;;;;;;9.75;7.22;;;;;;;6.33;100.00;99138.22;4949179;29;20046;-79
2022/09/29 02:28:45;;;;;;;9.77;7.43;;;;;;;6.42;100.00;99145.13;4946478;28;20051;-79
2022/09/29 02:31:11;;;;;;;14.25;7.55;;;;;;;6.48;100.00;99145.06;4948847;29;20027;-79
2022/09/29 02:33:37;;;;;;;9.65;7.07;;;;;;;6.52;100.00;99151.13;4948632;29;20052;-79
2022/09/29 02:36:27;;;;;;;9.73;7.35;;;;;;;6.49;100.00;99157.25;4946603;29;20039;-79
2022/09/29 02:39:06;;;;;;;8.25;7.03;;;;;;;6.44;100.00;99156.44;4953504;29;20402;-79
2022/09/29 02:42:04;;;;;;;8.85;7.00;;;;;;;6.41;100.00;99150.38;4948905;28;20051;-79
2022/09/29 02:44:50;;;;;;;9.45;7.25;;;;;;;6.43;100.00;99151.25;4949447;29;20245;-79
2022/09/29 02:47:39;;;;;;;8.90;7.38;;;;;;;6.45;100.00;99158.19;4947649;29;20043;-79
2022/09/29 02:50:27;;;;;;;8.75;7.45;;;;;;;6.44;100.00;99156.44;4948754;29;20032;-79
2022/09/29 02:53:17;;;;;;;11.00;7.70;;;;;;;6.46;100.00;99154.69;4953023;28;20039;-79
2022/09/29 02:55:53;;;;;;;9.10;7.18;;;;;;;6.49;100.00;99157.25;4949008;29;20407;-79
2022/09/29 02:58:31;;;;;;;9.18;7.30;;;;;;;6.50;100.00;99163.41;4947791;28;20494;-80
2022/09/29 03:00:58;;;;;;;13.68;7.45;;;;;;;6.49;100.00;99157.25;4948392;29;20384;-79
2022/09/29 03:03:23;;;;;;;11.10;7.85;;;;;;;6.49;100.00;99157.25;4943153;28;20126;-79
2022/09/29 03:05:50;;;;;;;13.60;8.38;;;;;;;6.51;100.00;99152.00;4949544;28;20521;-79
2022/09/29 03:08:15;;;;;;;10.48;8.25;;;;;;;6.51;100.00;99165.97;4950885;28;20039;-79
2022/09/29 03:10:41;;;;;;;9.82;7.65;;;;;;;6.49;100.00;99166.88;4946717;28;20102;-79
2022/09/29 03:13:06;;;;;;;13.32;8.02;;;;;;;6.47;100.00;99166.03;4949410;28;20450;-79
2022/09/29 03:15:31;;;;;;;9.50;7.28;;;;;;;6.45;100.00;99162.59;4948696;29;20518;-79
2022/09/29 03:17:57;;;;;;;8.75;7.57;;;;;;;6.42;100.00;99167.84;4948231;29;20099;-79
2022/09/29 03:20:22;;;;;;;10.38;7.25;;;;;;;6.41;100.00;99164.34;4949709;29;20035;-79
2022/09/29 03:22:47;;;;;;;8.32;6.93;;;;;;;6.47;100.00;99164.31;4954088;28;20398;-79
2022/09/29 03:25:13;;;;;;;10.40;8.52;;;;;;;6.50;100.00;99169.50;4947568;28;20083;-79
2022/09/29 03:27:39;;;;;;;10.27;8.63;;;;;;;6.49;100.00;99167.75;4948692;28;20089;-79
2022/09/29 03:30:05;;;;;;;10.25;7.07;;;;;;;6.55;100.00;99169.47;4948949;29;20666;-79
2022/09/29 03:32:30;;;;;;;9.73;7.65;;;;;;;6.60;100.00;99170.25;4952944;28;20054;-79
2022/09/29 03:34:56;;;;;;;15.18;8.07;;;;;;;6.67;100.00;99178.91;4945627;29;20099;-79
2022/09/29 03:37:21;;;;;;;9.43;7.68;;;;;;;6.64;100.00;99165.84;4946650;29;20048;-79
2022/09/29 03:39:47;;;;;;;8.60;7.05;;;;;;;6.65;100.00;99173.69;4948649;29;20039;-78
2022/09/29 03:42:12;;;;;;;7.93;6.80;;;;;;;6.64;100.00;99171.09;4947255;29;20450;-79
2022/09/29 03:44:37;;;;;;;7.85;7.05;;;;;;;6.57;100.00;99176.38;4947033;29;20490;-79
2022/09/29 03:47:03;;;;;;;10.98;7.45;;;;;;;6.53;100.00;99179.09;4948130;29;20048;-79
2022/09/29 03:49:28;;;;;;;12.43;7.65;;;;;;;6.38;100.00;99184.50;4946484;28;20046;-79
2022/09/29 03:51:54;;;;;;;11.93;8.70;;;;;;;6.28;100.00;99178.47;4948551;28;20044;-79
2022/09/29 03:54:19;;;;;;;9.23;6.57;;;;;;;6.15;100.00;99185.59;4947642;29;20043;-78
2022/09/29 03:56:44;;;;;;;10.63;7.00;;;;;;;6.03;100.00;99185.72;4945995;29;20047;-78
2022/09/29 03:59:10;;;;;;;11.68;7.20;;;;;;;5.92;100.00;99196.22;4948497;29;20051;-78
2022/09/29 04:01:36;;;;;;;8.90;6.55;;;;;;;5.81;100.00;99195.47;4946825;29;20102;-78
2022/09/29 04:04:02;;;;;;;10.60;7.55;;;;;;;5.73;100.00;99192.91;4946646;28;20035;-79
2022/09/29 04:06:28;;;;;;;9.50;7.35;;;;;;;5.66;100.00;99189.47;4946351;29;20155;-78
2022/09/29 04:08:53;;;;;;;12.18;8.52;;;;;;;5.59;100.00;99197.38;4945260;28;20040;-78
2022/09/29 04:11:19;;;;;;;11.20;7.43;;;;;;;5.55;100.00;99195.66;4946762;28;20130;-79
2022/09/29 04:13:44;;;;;;;12.85;7.95;;;;;;;5.43;100.00;99194.88;4947563;28;20501;-79
2022/09/29 04:16:10;;;;;;;11.90;8.77;;;;;;;5.32;100.00;99198.44;4945477;28;20034;-79
2022/09/29 04:18:35;;;;;;;13.25;10.00;;;;;;;5.18;100.00;99207.22;4941072;29;20038;-79
2022/09/29 04:21:05;;;;;;;11.65;8.70;;;;;;;5.14;100.00;99207.28;4944177;28;20046;-78
2022/09/29 04:23:31;;;;;;;10.35;7.90;;;;;;;5.10;100.00;99211.63;4951287;29;20229;-78
2022/09/29 04:25:57;;;;;;;13.57;7.18;;;;;;;5.03;100.00;99212.53;4944416;29;20039;-78
2022/09/29 04:28:22;;;;;;;8.40;7.15;;;;;;;4.95;100.00;99209.97;4947418;29;20039;-79
2022/09/29 04:30:48;;;;;;;13.75;6.85;;;;;;;4.86;100.00;99209.16;4950995;28;20035;-78
2022/09/29 04:33:13;;;;;;;8.45;6.30;;;;;;;4.77;100.00;99210.06;4949722;28;20094;-78
2022/09/29 04:35:38;;;;;;;11.77;8.80;;;;;;;4.72;100.00;99203.97;4952929;28;20036;-78
2022/09/29 04:38:04;;;;;;;8.77;7.05;;;;;;;4.72;100.00;99217.91;4954443;28;20031;-79
2022/09/29 04:40:30;;;;;;;10.23;7.72;;;;;;;4.67;100.00;99213.59;4949265;29;20095;-79
2022/09/29 04:42:55;;;;;;;11.32;8.15;;;;;;;4.62;100.00;99210.97;4950119;28;20126;-79
2022/09/29 04:45:20;;;;;;;10.23;7.78;;;;;;;4.57;100.00;99216.22;4951162;28;20118;-79
2022/09/29 04:47:46;;;;;;;9.68;7.85;;;;;;;4.52;100.00;99214.50;4942402;28;20483;-78
2022/09/29 04:50:11;;;;;;;11.85;7.82;;;;;;;4.48;100.00;99213.63;4943889;29;20422;-78
2022/09/29 04:52:36;;;;;;;11.23;8.02;;;;;;;4.47;100.00;99216.25;4941763;28;20044;-78
2022/09/29 04:55:03;;;;;;;8.20;6.38;;;;;;;4.43;100.00;99218.00;4939385;29;20039;-78
2022/09/29 04:57:28;;;;;;;9.25;7.43;;;;;;;4.38;100.00;99220.63;4946284;28;20070;-78
2022/09/29 04:59:54;;;;;;;12.63;6.70;;;;;;;4.36;100.00;99232.81;4949260;29;20406;-78
2022/09/29 05:02:20;;;;;;;20.33;13.00;;;;;;;4.35;100.00;99225.84;4950082;28;20132;-79
2022/09/29 05:04:46;;;;;;;16.10;10.30;;;;;;;4.37;100.00;99228.44;4944545;28;20046;-78
2022/09/29 05:07:12;;;;;;;9.65;7.45;;;;;;;4.38;100.00;99228.44;4945397;29;20031;-78
2022/09/29 05:09:38;;;;;;;10.85;7.82;;;;;;;4.33;100.00;99231.94;4942681;29;20086;-79
2022/09/29 05:12:03;;;;;;;8.57;6.68;;;;;;;4.28;100.00;99234.56;4944712;28;20493;-78
2022/09/29 05:14:29;;;;;;;11.63;8.65;;;;;;;4.29;100.00;99241.50;4943863;29;20039;-78
2022/09/29 05:16:54;;;;;;;10.48;8.48;;;;;;;4.32;100.00;99243.25;4944830;29;20556;-78
2022/09/29 05:19:20;;;;;;;17.15;8.27;;;;;;;4.34;100.00;99237.16;4944593;28;20406;-78
2022/09/29 05:21:45;;;;;;;15.20;9.27;;;;;;;4.42;100.00;99241.50;4949858;28;20498;-78
2022/09/29 05:24:11;;;;;;;13.55;8.93;;;;;;;4.44;100.00;99238.00;4943520;28;20126;-78
2022/09/29 05:26:36;;;;;;;12.07;8.25;;;;;;;4.47;100.00;99235.41;4945992;28;20046;-78
2022/09/29 05:29:01;;;;;;;10.38;8.02;;;;;;;4.51;100.00;99239.75;4944486;29;20042;-78
2022/09/29 05:31:27;;;;;;;11.10;7.82;;;;;;;4.60;100.00;99244.06;4943467;28;20043;-78
2022/09/29 05:33:54;;;;;;;12.40;7.82;;;;;;;4.64;100.00;99248.44;4944486;28;20049;-78
2022/09/29 05:36:20;;;;;;;10.70;7.45;;;;;;;4.63;100.00;99248.41;4947655;28;20038;-78
2022/09/29 05:38:45;;;;;;;9.73;7.55;;;;;;;4.69;100.00;99240.56;4946981;29;20039;-78
2022/09/29 05:41:11;;;;;;;13.43;9.50;;;;;;;4.82;100.00;99244.88;4948245;28;20035;-78
2022/09/29 05:43:38;;;;;;;12.65;8.30;;;;;;;4.92;100.00;99236.13;4947834;29;20035;-78
2022/09/29 05:46:05;;;;;;;14.30;8.27;;;;;;;5.03;100.00;99243.91;4944481;29;20144;-78
2022/09/29 05:48:30;;;;;;;11.10;9.05;;;;;;;5.17;100.00;99247.34;4944224;28;20399;-79
2022/09/29 05:50:57;;;;;;;14.88;8.75;;;;;;;5.36;100.00;99240.25;4949549;28;20040;-78
2022/09/29 05:53:23;;;;;;;12.98;8.68;;;;;;;5.55;100.00;99253.25;4946627;28;20050;-78
2022/09/29 05:55:48;;;;;;;13.23;9.38;;;;;;;5.73;100.00;99242.63;4943873;29;20782;-78
2022/09/29 05:58:14;;;;;;;14.38;9.05;;;;;;;5.94;100.00;99236.41;4944969;28;20047;-78
2022/09/29 06:00:40;;;;;;;18.90;8.80;;;;;;;6.12;100.00;99240.63;4945253;29;20044;-79
2022/09/29 06:03:05;;;;;;;9.95;7.85;;;;;;;6.24;100.00;99237.03;4945815;28;20399;-78
2022/09/29 06:05:31;;;;;;;12.35;7.28;;;;;;;6.28;100.00;99242.22;4948354;28;20066;-79
2022/09/29 06:07:57;;;;;;;12.00;7.90;;;;;;;6.29;100.00;99243.09;4950208;28;20046;-78
2022/09/29 06:10:22;;;;;;;13.02;8.15;;;;;;;6.41;100.00;99239.50;4946013;28;20118;-78
2022/09/29 06:12:47;;;;;;;9.90;7.72;;;;;;;6.51;100.00;99230.66;4945558;29;20043;-79
2022/09/29 06:15:12;;;;;;;8.77;7.75;;;;;;;6.61;100.00;99244.53;4947391;28;20087;-78
2022/09/29 06:17:38;;;;;;;13.73;8.50;;;;;;;6.67;100.00;99244.47;4946609;29;20118;-78
2022/09/29 06:20:05;;;;;;;9.48;7.10;;;;;;;6.67;100.00;99244.47;4944226;29;20138;-78
2022/09/29 06:22:31;;;;;;;9.25;7.82;;;;;;;6.70;100.00;99244.41;4944711;28;20056;-78
2022/09/29 06:24:57;;;;;;;9.65;7.45;;;;;;;6.73;100.00;99247.00;4946462;29;20498;-79
2022/09/29 06:27:23;;;;;;;10.00;6.85;;;;;;;6.74;100.00;99243.50;4945502;28;20035;-78
2022/09/29 06:29:48;;;;;;;11.88;8.60;;;;;;;6.72;100.00;99247.91;4949650;28;20093;-79
2022/09/29 06:32:14;;;;;;;9.43;7.93;;;;;;;6.73;100.00;99250.53;4944542;28;20043;-79
2022/09/29 06:37:33;;;;;;;13.02;9.02;;;;;;;6.74;100.00;99252.25;4946221;29;20118;-79
2022/09/29 06:37:34;;;;;;;10.63;8.48;;;;;;;6.77;100.00;99251.34;4946204;28;20035;-79
2022/09/29 06:40:04;;;;;;;11.43;8.23;;;;;;;6.79;100.00;99255.69;4941517;28;20043;-78
2022/09/29 06:42:30;;;;;;;13.63;8.93;;;;;;;6.83;100.00;99258.28;4953179;28;20425;-79
2022/09/29 06:45:01;;;;;;;14.35;9.30;;;;;;;6.83;100.00;99261.75;4950553;28;20035;-79
2022/09/29 06:47:26;;;;;;;9.35;7.85;;;;;;;6.81;100.00;99260.91;4931431;29;20114;-79
2022/09/29 06:49:52;;;;;;;11.00;8.73;;;;;;;6.82;100.00;99260.03;4941600;29;20098;-78
2022/09/29 06:52:17;;;;;;;18.58;8.93;;;;;;;6.83;100.00;99264.38;4951060;28;20039;-77
2022/09/29 06:54:43;;;;;;;12.95;8.88;;;;;;;6.85;100.00;99259.13;4948575;28;20047;-78
2022/09/29 06:57:17;;;;;;;19.35;11.15;;;;;;;6.88;100.00;99257.31;4944005;29;20074;-78
2022/09/29 06:59:43;;;;;;;16.30;10.65;;;;;;;6.94;100.00;99252.03;4949407;29;20063;-79
2022/09/29 07:02:10;;;;;;;11.68;8.13;;;;;;;7.05;100.00;99253.63;4943652;28;20062;-79
2022/09/29 07:04:35;;;;;;;10.77;7.65;;;;;;;7.15;100.00;99255.25;4955193;28;20043;-78
2022/09/29 07:07:01;;;;;;;11.68;7.82;;;;;;;7.23;100.00;99246.41;4949585;28;20032;-79
2022/09/29 07:09:26;;;;;;;10.68;9.07;;;;;;;7.34;100.00;99250.66;4949241;28;20035;-78
2022/09/29 07:11:51;;;;;;;13.02;8.85;;;;;;;7.45;100.00;99251.38;4946001;28;20421;-77
2022/09/29 07:14:19;;;;;;;13.05;8.77;;;;;;;7.55;100.00;99250.34;4949252;28;20498;-78
2022/09/29 07:16:47;;;;;;;11.05;8.35;;;;;;;7.63;100.00;99255.50;4947287;29;20036;-78
2022/09/29 07:19:13;;;;;;;13.90;9.10;;;;;;;7.69;100.00;99255.38;4947802;28;20633;-78
2022/09/29 07:21:38;;;;;;;12.38;8.95;;;;;;;7.79;100.00;99254.38;4954778;28;20047;-79
2022/09/29 07:24:03;;;;;;;11.82;8.88;;;;;;;7.89;100.00;99258.59;4949510;28;20114;-79
2022/09/29 07:26:29;;;;;;;10.18;8.65;;;;;;;7.99;100.00;99258.41;4949301;29;20035;-79
2022/09/29 07:28:54;;;;;;;11.68;9.25;;;;;;;8.08;100.00;99255.66;4948593;29;20043;-79
2022/09/29 07:31:20;;;;;;;16.02;8.95;;;;;;;8.15;100.00;99259.94;4951482;29;20043;-79
2022/09/29 07:33:48;;;;;;;13.20;8.52;;;;;;;8.25;100.00;99266.78;4947263;28;20047;-79
2022/09/29 07:36:16;;;;;;;12.77;9.18;;;;;;;8.34;99.54;99265.75;4955504;28;20058;-79
2022/09/29 07:38:44;;;;;;;12.77;8.23;;;;;;;8.41;99.58;99253.38;4944508;28;20094;-78
2022/09/29 07:41:11;;;;;;;14.05;8.88;;;;;;;8.51;100.00;99260.19;4947258;28;20130;-79
2022/09/29 07:43:37;;;;;;;13.05;10.15;;;;;;;8.65;99.59;99257.34;4946020;28;20042;-78
2022/09/29 07:46:02;;;;;;;12.48;8.88;;;;;;;8.76;99.37;99263.25;4946883;28;20039;-78
2022/09/29 07:48:29;;;;;;;11.45;9.32;;;;;;;8.84;99.24;99260.47;4947331;29;20101;-79
2022/09/29 07:51:05;;;;;;;12.48;9.48;;;;;;;8.96;98.99;99260.22;4945873;28;20077;-79
2022/09/29 07:53:31;;;;;;;16.15;9.85;;;;;;;8.99;97.91;99261.03;4945586;28;20035;-79
2022/09/29 07:56:04;;;;;;;15.75;9.45;;;;;;;9.09;96.17;99272.25;4929087;29;20027;-78
2022/09/29 07:58:31;;;;;;;17.75;8.98;;;;;;;9.11;96.18;99267.81;4952922;29;20039;-79
2022/09/29 08:00:57;;;;;;;9.93;8.07;;;;;;;9.20;95.94;99269.41;4947953;29;20051;-78
2022/09/29 08:03:24;;;;;;;11.20;9.10;;;;;;;9.25;95.80;99258.75;4948655;28;20031;-78
2022/09/29 08:05:51;;;;;;;13.38;9.40;;;;;;;9.35;94.54;99266.47;4949408;29;20039;-78
2022/09/29 08:08:16;;;;;;;12.63;9.63;;;;;;;9.44;95.71;99268.00;4949400;28;20023;-79
2022/09/29 08:10:42;;;;;;;13.05;8.73;;;;;;;9.50;94.12;99267.88;4948132;29;20051;-78
2022/09/29 08:13:08;;;;;;;12.90;9.43;;;;;;;9.56;93.98;99273.03;4943038;29;20043;-78
2022/09/29 08:15:33;;;;;;;11.70;8.73;;;;;;;9.68;94.54;99276.28;4944800;29;20524;-77
2022/09/29 08:17:58;;;;;;;10.25;8.82;;;;;;;9.72;94.08;99278.81;4947499;29;20046;-77
2022/09/29 08:20:25;;;;;;;14.50;9.73;;;;;;;9.82;93.35;99276.81;4944726;28;20031;-76
2022/09/29 08:22:51;;;;;;;12.25;9.00;;;;;;;9.91;93.17;99284.53;4943588;28;20040;-76
2022/09/29 08:25:17;;;;;;;10.98;9.70;;;;;;;9.96;91.97;99284.41;4946582;29;20046;-76
2022/09/29 08:27:43;;;;;;;15.07;8.90;;;;;;;9.99;91.26;99287.84;4943775;29;20032;-77
2022/09/29 08:30:09;;;;;;;13.98;10.32;;;;;;;10.07;91.33;99290.28;4945460;28;20069;-76
2022/09/29 08:32:35;;;;;;;12.20;9.70;;;;;;;10.18;91.01;99292.66;4943549;29;20130;-77
2022/09/29 08:35:01;;;;;;;9.40;8.35;;;;;;;10.26;90.44;99290.72;4944301;28;20062;-76
2022/09/29 08:37:26;;;;;;;11.23;9.85;;;;;;;10.33;90.34;99291.47;4946339;29;20035;-76
2022/09/29 08:39:52;;;;;;;17.48;11.60;;;;;;;10.36;89.34;99296.66;4943117;28;20503;-76
2022/09/29 08:42:54;;;;;;;12.65;10.02;;;;;;;10.46;89.33;99299.03;4948404;28;20034;-77
2022/09/29 08:45:30;;;;;;;17.95;13.50;;;;;;;10.55;89.54;99302.34;4944136;29;20097;-77
2022/09/29 08:48:10;;;;;;;19.50;12.38;;;;;;;10.68;89.33;99299.31;4945497;29;20036;-77
2022/09/29 08:50:47;;;;;;;13.63;10.13;;;;;;;10.75;88.43;99306.19;4941409;28;20499;-76
2022/09/29 08:53:17;;;;;;;12.45;10.10;;;;;;;10.79;87.21;99306.97;4949312;28;20086;-76
2022/09/29 08:55:51;;;;;;;14.18;10.25;;;;;;;10.85;87.81;99308.59;4943662;28;20551;-75
2022/09/29 08:58:17;;;;;;;16.20;10.65;;;;;;;10.89;86.96;99308.44;4944057;28;20542;-77
2022/09/29 09:00:56;;;;;;;16.70;11.02;;;;;;;10.86;86.75;99313.81;4947345;28;20130;-76
2022/09/29 09:03:58;;;;;;;11.25;10.07;;;;;;;11.03;86.35;99310.72;4960653;23;20429;-75
2022/09/29 09:06:30;;;;;;;18.33;13.07;;;;;;;11.22;86.62;99316.38;4951545;29;20560;-75
2022/09/29 09:09:08;;;;;;;16.08;10.80;;;;;;;11.36;84.75;99314.19;4954041;28;20035;-76
2022/09/29 09:11:41;;;;;;;15.25;11.10;;;;;;;11.38;82.89;99327.34;4950845;28;20035;-75
2022/09/29 09:14:21;;;;;;;16.00;11.65;;;;;;;11.40;83.54;99322.91;4941524;29;20102;-75
2022/09/29 09:17:09;;;;;;;14.05;12.35;;;;;;;11.46;81.67;99324.50;4952268;28;20036;-74
2022/09/29 09:19:58;;;;;;;17.45;12.73;;;;;;;11.58;81.50;99322.38;4932688;29;20052;-75
2022/09/29 09:22:48;;;;;;;15.75;11.95;;;;;;;11.78;81.12;99328.81;4932885;29;20055;-75
2022/09/29 09:25:32;;;;;;;14.48;12.15;;;;;;;11.88;80.52;99325.03;4929883;29;20124;-75
2022/09/29 09:28:15;;;;;;;10.70;9.40;;;;;;;12.03;78.95;99329.84;4936412;29;20074;-75
2022/09/29 09:30:52;;;;;;;11.98;9.85;;;;;;;12.05;75.97;99330.66;4931811;29;20483;-75
2022/09/29 09:33:46;;;;;;;9.98;8.95;;;;;;;12.06;74.57;99326.22;4942287;29;20035;-75
2022/09/29 09:36:20;;;;;;;12.90;9.98;;;;;;;12.13;75.28;99338.34;4943217;29;20039;-75
2022/09/29 09:38:52;;;;;;;14.13;8.68;;;;;;;12.23;75.17;99329.19;4935214;29;20047;-75
2022/09/29 09:41:20;;;;;;;12.73;9.77;;;;;;;12.25;74.92;99332.66;4928053;29;20050;-75
2022/09/29 09:43:51;;;;;;;12.27;8.43;;;;;;;12.34;74.59;99341.22;4936904;28;20039;-75
2022/09/29 09:46:22;;;;;;;9.98;8.98;;;;;;;12.37;73.37;99341.13;4939680;28;20036;-74
2022/09/29 09:49:00;;;;;;;12.32;10.13;;;;;;;12.44;73.16;99340.88;4943491;28;20047;-75
2022/09/29 09:51:48;;;;;;;11.65;9.85;;;;;;;12.38;72.99;99332.28;4956575;28;20405;-75
2022/09/29 09:54:24;;;;;;;15.32;10.25;;;;;;;12.30;74.22;99331.66;4938882;29;20475;-75
2022/09/29 09:57:18;;;;;;;14.60;10.30;;;;;;;12.32;74.75;99337.78;4941558;28;20027;-75
2022/09/29 09:59:56;;;;;;;10.07;9.07;;;;;;;12.52;72.99;99335.31;4942428;29;20406;-75
2022/09/29 10:02:22;;;;;;;8.80;8.00;;;;;;;12.70;71.92;99329.41;4936917;29;20143;-75
2022/09/29 10:04:50;;;;;;;11.07;9.52;;;;;;;12.91;71.29;99326.94;4944007;28;20414;-75
2022/09/29 10:07:18;;;;;;;9.60;8.70;;;;;;;13.16;69.14;99317.22;4944818;29;20039;-75
2022/09/29 10:09:44;;;;;;;9.55;8.55;;;;;;;13.28;66.37;99323.00;4938273;28;20071;-75
2022/09/29 10:12:16;;;;;;;9.48;8.48;;;;;;;13.48;66.67;99324.94;4940699;28;20035;-75
2022/09/29 10:14:50;;;;;;;9.15;7.90;;;;;;;13.68;65.46;99319.75;4941343;29;20044;-75
2022/09/29 10:17:19;;;;;;;8.40;7.68;;;;;;;13.77;65.28;99314.06;4938593;29;20458;-75
2022/09/29 10:20:00;;;;;;;9.00;8.05;;;;;;;13.81;62.97;99312.19;4932081;28;20422;-75
2022/09/29 10:22:28;;;;;;;13.25;8.50;;;;;;;13.78;63.28;99318.47;4940378;29;20387;-78
2022/09/29 10:25:17;;;;;;;9.20;8.32;;;;;;;13.79;61.86;99327.28;4944859;28;20039;-79
2022/09/29 10:27:47;;;;;;;8.93;8.13;;;;;;;13.73;62.12;99317.78;4937084;29;20560;-79
2022/09/29 10:30:19;;;;;;;8.38;7.47;;;;;;;13.68;62.33;99321.53;4959234;28;20043;-78
2022/09/29 10:32:45;;;;;;;8.25;7.55;;;;;;;13.69;63.48;99324.13;4941064;28;20132;-78
2022/09/29 10:35:13;;;;;;;8.05;7.30;;;;;;;13.78;62.62;99321.13;4945159;28;20063;-78
2022/09/29 10:37:42;;;;;;;6.65;6.05;;;;;;;13.84;59.55;99324.47;4945308;28;20117;-78
2022/09/29 10:40:07;;;;;;;10.35;7.68;;;;;;;13.70;57.79;99322.31;4946767;28;20039;-78
2022/09/29 10:42:47;;;;;;;6.57;6.07;;;;;;;13.71;58.31;99324.94;4944031;29;20505;-78
2022/09/29 10:45:29;;;;;;;6.82;6.22;;;;;;;13.80;58.67;99327.22;4945633;29;20040;-78
2022/09/29 10:47:57;;;;;;;7.28;6.68;;;;;;;13.95;58.56;99331.06;4949119;29;20040;-78
2022/09/29 10:50:28;;;;;;;8.02;6.00;;;;;;;13.98;58.71;99327.44;4947416;29;20114;-78
2022/09/29 10:53:00;;;;;;;6.70;6.15;;;;;;;14.02;56.37;99335.22;4941655;28;20105;-79
2022/09/29 10:55:31;;;;;;;7.10;6.43;;;;;;;13.98;58.21;99328.28;4946449;29;20067;-79
2022/09/29 10:58:00;;;;;;;8.63;6.93;;;;;;;14.10;58.97;99334.06;4949013;29;20035;-79
2022/09/29 11:00:33;;;;;;;7.18;6.22;;;;;;;14.06;58.53;99335.09;4945866;28;20096;-78
2022/09/29 11:03:21;;;;;;;7.72;6.75;;;;;;;13.81;60.40;99342.22;4939080;29;20039;-78
2022/09/29 11:05:57;;;;;;;7.97;6.30;;;;;;;13.95;59.12;99343.47;4939444;29;20521;-78
2022/09/29 11:08:24;;;;;;;6.30;5.70;;;;;;;13.89;57.45;99338.41;4943316;29;20078;-78
2022/09/29 11:11:02;;;;;;;6.15;5.57;;;;;;;13.81;54.38;99347.53;4941845;28;20644;-77
2022/09/29 11:13:39;;;;;;;7.03;6.43;;;;;;;13.78;55.21;99342.34;4943839;28;20494;-78
2022/09/29 11:16:14;;;;;;;7.65;6.95;;;;;;;13.79;54.84;99345.84;4942198;29;20086;-78
2022/09/29 11:18:40;;;;;;;6.97;6.38;;;;;;;13.91;55.87;99347.16;4944601;28;20046;-77
2022/09/29 11:21:25;;;;;;;7.43;6.75;;;;;;;14.11;55.10;99349.03;4944699;29;20044;-78
2022/09/29 11:24:02;;;;;;;8.30;7.57;;;;;;;14.25;54.29;99352.00;4935211;29;20043;-78
2022/09/29 11:26:59;;;;;;;9.27;8.43;;;;;;;14.82;52.67;99350.56;4941043;29;20039;-78
2022/09/29 11:29:54;;;;;;;8.40;7.60;;;;;;;15.06;51.40;99345.13;4932475;29;20087;-78
2022/09/29 11:32:45;;;;;;;7.50;6.90;;;;;;;15.16;52.05;99346.44;4943659;29;20089;-78
2022/09/29 11:35:32;;;;;;;8.05;7.35;;;;;;;15.57;51.08;99346.41;4947290;29;20027;-78
2022/09/29 11:38:28;;;;;;;7.82;7.22;;;;;;;15.84;50.53;99338.97;4940087;29;20533;-78
2022/09/29 11:41:08;;;;;;;7.90;7.20;;;;;;;16.08;50.95;99342.28;4945048;29;20047;-78
2022/09/29 11:43:44;;;;;;;7.30;6.70;;;;;;;15.47;48.90;99340.63;4943744;29;20043;-78
2022/09/29 11:46:36;;;;;;;7.45;6.80;;;;;;;15.36;50.21;99337.59;4939334;29;20035;-78